sensor_id;sensor_type;location;lat;lon;timestamp;P1;durP1;ratioP1;P2;durP2;ratioP2
11203;SDS011;5659;49.408;11.116;2023-05-10T00:02:13;6.90;;;5.20;;
11203;SDS011;5659;49.408;11.116;2023-05-10T00:04:39;7.70;;;5.80;;
11203;SDS011;5659;49.408;11.116;2023-05-10T00:07:05;7.32;;;6.20;;
11203;SDS011;5659;49.408;11.116;2023-05-10T00:09:31;8.77;;;6.53;;
11203;SDS011;5659;49.408;11.116;2023-05-10T00:11:57;9.00;;;6.53;;
11203;SDS011;5659;49.408;11.116;2023-05-10T00:14:24;8.27;;;6.43;;
11203;SDS011;5659;49.408;11.116;2023-05-10T00:16:50;6.95;;;6.07;;
11203;SDS011;5659;49.408;11.116;2023-05-10T00:19:15;8.52;;;6.75;;
11203;SDS011;5659;49.408;11.116;2023-05-10T00:21:41;8.65;;;7.18;;
11203;SDS011;5659;49.408;11.116;2023-05-10T00:24:07;9.23;;;7.32;;
11203;SDS011;5659;49.408;11.116;2023-05-10T00:26:33;8.85;;;7.68;;
11203;SDS011;5659;49.408;11.116;2023-05-10T00:28:59;10.55;;;7.53;;
11203;SDS011;5659;49.408;11.116;2023-05-10T00:31:25;11.23;;;8.55;;
11203;SDS011;5659;49.408;11.116;2023-05-10T00:33:51;12.05;;;8.10;;
11203;SDS011;5659;49.408;11.116;2023-05-10T00:36:17;9.52;;;8.55;;
11203;SDS011;5659;49.408;11.116;2023-05-10T00:38:43;16.15;;;8.65;;
11203;SDS011;5659;49.408;11.116;2023-05-10T00:41:09;11.27;;;8.93;;
11203;SDS011;5659;49.408;11.116;2023-05-10T00:43:35;9.90;;;8.82;;
11203;SDS011;5659;49.408;11.116;2023-05-10T00:46:01;12.15;;;8.95;;
11203;SDS011;5659;49.408;11.116;2023-05-10T00:48:28;14.43;;;9.15;;
11203;SDS011;5659;49.408;11.116;2023-05-10T00:50:54;15.95;;;10.07;;
11203;SDS011;5659;49.408;11.116;2023-05-10T00:53:20;16.08;;;9.55;;
11203;SDS011;5659;49.408;11.116;2023-05-10T00:55:47;13.57;;;10.65;;
11203;SDS011;5659;49.408;11.116;2023-05-10T00:58:13;13.10;;;10.07;;
11203;SDS011;5659;49.408;11.116;2023-05-10T01:00:39;20.35;;;10.75;;
11203;SDS011;5659;49.408;11.116;2023-05-10T01:03:07;11.95;;;10.30;;
11203;SDS011;5659;49.408;11.116;2023-05-10T01:05:33;13.07;;;10.35;;
11203;SDS011;5659;49.408;11.116;2023-05-10T01:07:59;14.48;;;10.93;;
11203;SDS011;5659;49.408;11.116;2023-05-10T01:10:25;15.05;;;10.70;;
11203;SDS011;5659;49.408;11.116;2023-05-10T01:12:51;13.93;;;11.15;;
11203;SDS011;5659;49.408;11.116;2023-05-10T01:15:17;15.30;;;11.52;;
11203;SDS011;5659;49.408;11.116;2023-05-10T01:17:49;16.30;;;11.13;;
11203;SDS011;5659;49.408;11.116;2023-05-10T01:20:17;15.38;;;11.75;;
11203;SDS011;5659;49.408;11.116;2023-05-10T01:22:56;14.50;;;12.43;;
11203;SDS011;5659;49.408;11.116;2023-05-10T01:33:21;15.73;;;12.43;;
11203;SDS011;5659;49.408;11.116;2023-05-10T01:35:56;14.85;;;12.25;;
11203;SDS011;5659;49.408;11.116;2023-05-10T01:41:12;15.20;;;12.57;;
11203;SDS011;5659;49.408;11.116;2023-05-10T01:43:52;18.67;;;13.18;;
11203;SDS011;5659;49.408;11.116;2023-05-10T01:46:24;18.45;;;13.55;;
11203;SDS011;5659;49.408;11.116;2023-05-10T01:48:52;20.60;;;13.55;;
11203;SDS011;5659;49.408;11.116;2023-05-10T01:51:22;16.83;;;13.80;;
11203;SDS011;5659;49.408;11.116;2023-05-10T01:53:48;20.77;;;13.90;;
11203;SDS011;5659;49.408;11.116;2023-05-10T01:56:16;17.75;;;13.15;;
11203;SDS011;5659;49.408;11.116;2023-05-10T01:58:43;19.45;;;13.00;;
11203;SDS011;5659;49.408;11.116;2023-05-10T02:01:11;19.13;;;13.13;;
11203;SDS011;5659;49.408;11.116;2023-05-10T02:03:37;17.15;;;13.07;;
11203;SDS011;5659;49.408;11.116;2023-05-10T02:06:04;16.55;;;12.95;;
11203;SDS011;5659;49.408;11.116;2023-05-10T02:08:31;16.25;;;13.25;;
11203;SDS011;5659;49.408;11.116;2023-05-10T02:10:58;16.75;;;13.02;;
11203;SDS011;5659;49.408;11.116;2023-05-10T02:13:25;19.05;;;13.45;;
11203;SDS011;5659;49.408;11.116;2023-05-10T02:15:52;17.38;;;13.57;;
11203;SDS011;5659;49.408;11.116;2023-05-10T02:18:18;22.05;;;14.07;;
11203;SDS011;5659;49.408;11.116;2023-05-10T02:20:45;19.42;;;14.23;;
11203;SDS011;5659;49.408;11.116;2023-05-10T02:23:11;16.80;;;13.88;;
11203;SDS011;5659;49.408;11.116;2023-05-10T02:25:38;18.30;;;13.85;;
11203;SDS011;5659;49.408;11.116;2023-05-10T02:28:04;17.83;;;13.25;;
11203;SDS011;5659;49.408;11.116;2023-05-10T02:30:31;18.25;;;13.05;;
11203;SDS011;5659;49.408;11.116;2023-05-10T02:32:58;17.83;;;13.65;;
11203;SDS011;5659;49.408;11.116;2023-05-10T02:35:24;20.00;;;13.68;;
11203;SDS011;5659;49.408;11.116;2023-05-10T02:37:51;20.08;;;13.55;;
11203;SDS011;5659;49.408;11.116;2023-05-10T02:40:17;16.70;;;13.20;;
11203;SDS011;5659;49.408;11.116;2023-05-10T02:42:45;18.35;;;14.35;;
11203;SDS011;5659;49.408;11.116;2023-05-10T02:45:15;19.20;;;13.43;;
11203;SDS011;5659;49.408;11.116;2023-05-10T02:47:42;19.60;;;13.30;;
11203;SDS011;5659;49.408;11.116;2023-05-10T02:50:08;20.30;;;12.50;;
11203;SDS011;5659;49.408;11.116;2023-05-10T02:52:46;16.25;;;12.50;;
11203;SDS011;5659;49.408;11.116;2023-05-10T02:55:14;18.48;;;13.32;;
11203;SDS011;5659;49.408;11.116;2023-05-10T02:57:41;17.90;;;12.40;;
11203;SDS011;5659;49.408;11.116;2023-05-10T03:00:09;18.02;;;13.55;;
11203;SDS011;5659;49.408;11.116;2023-05-10T03:02:35;19.88;;;12.18;;
11203;SDS011;5659;49.408;11.116;2023-05-10T03:05:01;10.20;;;7.97;;
11203;SDS011;5659;49.408;11.116;2023-05-10T03:07:27;7.18;;;5.85;;
11203;SDS011;5659;49.408;11.116;2023-05-10T03:09:54;13.07;;;6.40;;
11203;SDS011;5659;49.408;11.116;2023-05-10T03:15:47;5.93;;;3.33;;
11203;SDS011;5659;49.408;11.116;2023-05-10T03:18:02;8.80;;;3.33;;
11203;SDS011;5659;49.408;11.116;2023-05-10T03:20:29;5.20;;;3.63;;
11203;SDS011;5659;49.408;11.116;2023-05-10T03:23:04;8.40;;;3.42;;
11203;SDS011;5659;49.408;11.116;2023-05-10T03:25:33;5.75;;;3.33;;
11203;SDS011;5659;49.408;11.116;2023-05-10T03:28:00;4.15;;;3.55;;
11203;SDS011;5659;49.408;11.116;2023-05-10T03:30:27;4.90;;;3.20;;
11203;SDS011;5659;49.408;11.116;2023-05-10T03:32:53;3.45;;;2.88;;
11203;SDS011;5659;49.408;11.116;2023-05-10T03:35:19;3.35;;;3.05;;
11203;SDS011;5659;49.408;11.116;2023-05-10T03:37:45;3.58;;;3.08;;
11203;SDS011;5659;49.408;11.116;2023-05-10T03:40:12;3.50;;;3.20;;
11203;SDS011;5659;49.408;11.116;2023-05-10T03:42:38;4.00;;;2.80;;
11203;SDS011;5659;49.408;11.116;2023-05-10T03:45:04;3.67;;;2.78;;
11203;SDS011;5659;49.408;11.116;2023-05-10T03:47:30;5.28;;;2.67;;
11203;SDS011;5659;49.408;11.116;2023-05-10T03:49:56;3.30;;;2.65;;
11203;SDS011;5659;49.408;11.116;2023-05-10T03:52:22;7.78;;;2.40;;
11203;SDS011;5659;49.408;11.116;2023-05-10T03:54:48;3.78;;;2.63;;
11203;SDS011;5659;49.408;11.116;2023-05-10T03:57:14;6.38;;;3.40;;
11203;SDS011;5659;49.408;11.116;2023-05-10T03:59:40;5.15;;;2.45;;
11203;SDS011;5659;49.408;11.116;2023-05-10T04:02:06;3.75;;;2.33;;
11203;SDS011;5659;49.408;11.116;2023-05-10T04:04:32;4.90;;;2.55;;
11203;SDS011;5659;49.408;11.116;2023-05-10T04:06:58;3.08;;;2.30;;
11203;SDS011;5659;49.408;11.116;2023-05-10T04:09:27;3.00;;;1.95;;
11203;SDS011;5659;49.408;11.116;2023-05-10T04:11:53;2.95;;;2.28;;
11203;SDS011;5659;49.408;11.116;2023-05-10T04:14:19;2.50;;;2.17;;
11203;SDS011;5659;49.408;11.116;2023-05-10T04:16:45;5.07;;;2.25;;
11203;SDS011;5659;49.408;11.116;2023-05-10T04:19:10;6.07;;;2.10;;
11203;SDS011;5659;49.408;11.116;2023-05-10T04:21:36;2.80;;;2.30;;
11203;SDS011;5659;49.408;11.116;2023-05-10T04:24:03;2.47;;;1.90;;
11203;SDS011;5659;49.408;11.116;2023-05-10T04:26:29;1.83;;;1.67;;
11203;SDS011;5659;49.408;11.116;2023-05-10T04:28:55;2.80;;;1.88;;
11203;SDS011;5659;49.408;11.116;2023-05-10T04:31:20;2.00;;;1.77;;
11203;SDS011;5659;49.408;11.116;2023-05-10T04:33:46;2.20;;;1.83;;
11203;SDS011;5659;49.408;11.116;2023-05-10T04:36:12;7.03;;;1.70;;
11203;SDS011;5659;49.408;11.116;2023-05-10T04:38:38;4.03;;;2.15;;
11203;SDS011;5659;49.408;11.116;2023-05-10T04:41:08;2.25;;;1.75;;
11203;SDS011;5659;49.408;11.116;2023-05-10T04:43:34;3.42;;;1.90;;
11203;SDS011;5659;49.408;11.116;2023-05-10T04:46:01;3.58;;;1.75;;
11203;SDS011;5659;49.408;11.116;2023-05-10T04:48:27;4.15;;;1.92;;
11203;SDS011;5659;49.408;11.116;2023-05-10T04:50:53;4.65;;;1.85;;
11203;SDS011;5659;49.408;11.116;2023-05-10T04:53:19;2.50;;;1.80;;
11203;SDS011;5659;49.408;11.116;2023-05-10T04:55:45;3.55;;;1.80;;
11203;SDS011;5659;49.408;11.116;2023-05-10T04:58:11;2.80;;;1.45;;
11203;SDS011;5659;49.408;11.116;2023-05-10T05:00:37;2.80;;;1.70;;
11203;SDS011;5659;49.408;11.116;2023-05-10T05:03:03;1.60;;;1.50;;
11203;SDS011;5659;49.408;11.116;2023-05-10T05:05:30;1.90;;;1.70;;
11203;SDS011;5659;49.408;11.116;2023-05-10T05:07:56;1.50;;;1.40;;
11203;SDS011;5659;49.408;11.116;2023-05-10T05:10:22;1.73;;;1.60;;
11203;SDS011;5659;49.408;11.116;2023-05-10T05:12:48;1.65;;;1.55;;
11203;SDS011;5659;49.408;11.116;2023-05-10T05:15:14;2.75;;;1.75;;
11203;SDS011;5659;49.408;11.116;2023-05-10T05:17:41;2.22;;;1.50;;
11203;SDS011;5659;49.408;11.116;2023-05-10T05:20:10;1.60;;;1.50;;
11203;SDS011;5659;49.408;11.116;2023-05-10T05:22:36;2.10;;;1.90;;
11203;SDS011;5659;49.408;11.116;2023-05-10T05:25:03;3.63;;;1.48;;
11203;SDS011;5659;49.408;11.116;2023-05-10T05:27:29;2.38;;;1.55;;
11203;SDS011;5659;49.408;11.116;2023-05-10T05:29:55;4.70;;;1.63;;
11203;SDS011;5659;49.408;11.116;2023-05-10T05:32:22;4.32;;;1.58;;
11203;SDS011;5659;49.408;11.116;2023-05-10T05:34:48;1.88;;;1.77;;
11203;SDS011;5659;49.408;11.116;2023-05-10T05:37:14;1.40;;;1.30;;
11203;SDS011;5659;49.408;11.116;2023-05-10T05:39:40;1.60;;;1.50;;
11203;SDS011;5659;49.408;11.116;2023-05-10T05:42:07;2.00;;;1.80;;
11203;SDS011;5659;49.408;11.116;2023-05-10T05:44:33;1.58;;;1.48;;
11203;SDS011;5659;49.408;11.116;2023-05-10T05:46:59;1.75;;;1.60;;
11203;SDS011;5659;49.408;11.116;2023-05-10T05:49:25;2.22;;;1.50;;
11203;SDS011;5659;49.408;11.116;2023-05-10T05:51:51;1.60;;;1.50;;
11203;SDS011;5659;49.408;11.116;2023-05-10T05:54:17;2.33;;;1.60;;
11203;SDS011;5659;49.408;11.116;2023-05-10T05:56:43;2.35;;;1.88;;
11203;SDS011;5659;49.408;11.116;2023-05-10T05:59:09;1.80;;;1.70;;
11203;SDS011;5659;49.408;11.116;2023-05-10T06:01:35;1.70;;;1.60;;
11203;SDS011;5659;49.408;11.116;2023-05-10T06:04:01;2.05;;;1.80;;
11203;SDS011;5659;49.408;11.116;2023-05-10T06:06:27;1.80;;;1.70;;
11203;SDS011;5659;49.408;11.116;2023-05-10T06:08:53;1.60;;;1.50;;
11203;SDS011;5659;49.408;11.116;2023-05-10T06:11:19;1.90;;;1.80;;
11203;SDS011;5659;49.408;11.116;2023-05-10T06:13:49;1.60;;;1.50;;
11203;SDS011;5659;49.408;11.116;2023-05-10T06:16:15;4.13;;;1.80;;
11203;SDS011;5659;49.408;11.116;2023-05-10T06:18:42;1.70;;;1.60;;
11203;SDS011;5659;49.408;11.116;2023-05-10T06:21:08;1.80;;;1.70;;
11203;SDS011;5659;49.408;11.116;2023-05-10T06:23:34;2.90;;;1.65;;
11203;SDS011;5659;49.408;11.116;2023-05-10T06:26:00;1.65;;;1.55;;
11203;SDS011;5659;49.408;11.116;2023-05-10T06:28:26;3.47;;;1.60;;
11203;SDS011;5659;49.408;11.116;2023-05-10T06:30:52;4.70;;;1.88;;
11203;SDS011;5659;49.408;11.116;2023-05-10T06:33:18;1.80;;;1.70;;
11203;SDS011;5659;49.408;11.116;2023-05-10T06:35:44;9.52;;;1.60;;
11203;SDS011;5659;49.408;11.116;2023-05-10T06:38:10;1.80;;;1.70;;
11203;SDS011;5659;49.408;11.116;2023-05-10T06:40:36;2.65;;;1.90;;
11203;SDS011;5659;49.408;11.116;2023-05-10T06:43:02;3.05;;;1.65;;
11203;SDS011;5659;49.408;11.116;2023-05-10T06:45:28;1.70;;;1.60;;
11203;SDS011;5659;49.408;11.116;2023-05-10T06:47:54;3.50;;;1.67;;
11203;SDS011;5659;49.408;11.116;2023-05-10T06:50:20;2.17;;;1.60;;
11203;SDS011;5659;49.408;11.116;2023-05-10T06:52:46;5.88;;;1.77;;
11203;SDS011;5659;49.408;11.116;2023-05-10T06:55:12;7.78;;;1.60;;
11203;SDS011;5659;49.408;11.116;2023-05-10T06:57:38;6.13;;;1.90;;
11203;SDS011;5659;49.408;11.116;2023-05-10T07:00:04;2.47;;;1.60;;
11203;SDS011;5659;49.408;11.116;2023-05-10T07:02:31;1.52;;;1.42;;
11203;SDS011;5659;49.408;11.116;2023-05-10T07:04:57;1.40;;;1.30;;
11203;SDS011;5659;49.408;11.116;2023-05-10T07:07:23;5.65;;;1.95;;
11203;SDS011;5659;49.408;11.116;2023-05-10T07:09:48;5.88;;;1.70;;
11203;SDS011;5659;49.408;11.116;2023-05-10T07:12:16;6.35;;;1.50;;
11203;SDS011;5659;49.408;11.116;2023-05-10T07:14:42;1.70;;;1.60;;
11203;SDS011;5659;49.408;11.116;2023-05-10T07:17:08;3.10;;;1.75;;
11203;SDS011;5659;49.408;11.116;2023-05-10T07:19:34;1.63;;;1.30;;
11203;SDS011;5659;49.408;11.116;2023-05-10T07:22:00;1.77;;;1.50;;
11203;SDS011;5659;49.408;11.116;2023-05-10T07:24:26;2.55;;;1.65;;
11203;SDS011;5659;49.408;11.116;2023-05-10T07:26:52;3.35;;;1.50;;
11203;SDS011;5659;49.408;11.116;2023-05-10T07:29:18;4.38;;;1.33;;
11203;SDS011;5659;49.408;11.116;2023-05-10T07:31:44;4.10;;;1.48;;
11203;SDS011;5659;49.408;11.116;2023-05-10T07:34:10;1.65;;;1.30;;
11203;SDS011;5659;49.408;11.116;2023-05-10T07:36:36;1.00;;;1.00;;
11203;SDS011;5659;49.408;11.116;2023-05-10T07:39:02;3.35;;;1.30;;
11203;SDS011;5659;49.408;11.116;2023-05-10T07:41:28;2.25;;;1.52;;
11203;SDS011;5659;49.408;11.116;2023-05-10T07:43:54;2.20;;;1.40;;
11203;SDS011;5659;49.408;11.116;2023-05-10T07:46:20;1.40;;;1.30;;
11203;SDS011;5659;49.408;11.116;2023-05-10T07:48:46;2.17;;;1.25;;
11203;SDS011;5659;49.408;11.116;2023-05-10T07:51:12;3.97;;;1.50;;
11203;SDS011;5659;49.408;11.116;2023-05-10T07:53:38;7.38;;;1.52;;
11203;SDS011;5659;49.408;11.116;2023-05-10T07:58:50;2.00;;;1.33;;
11203;SDS011;5659;49.408;11.116;2023-05-10T08:01:16;2.00;;;1.50;;
11203;SDS011;5659;49.408;11.116;2023-05-10T08:03:42;2.75;;;1.30;;
11203;SDS011;5659;49.408;11.116;2023-05-10T08:06:08;3.90;;;1.40;;
11203;SDS011;5659;49.408;11.116;2023-05-10T08:08:34;3.75;;;1.50;;
11203;SDS011;5659;49.408;11.116;2023-05-10T08:11:00;1.40;;;1.30;;
11203;SDS011;5659;49.408;11.116;2023-05-10T08:13:25;1.85;;;1.67;;
11203;SDS011;5659;49.408;11.116;2023-05-10T08:15:52;4.68;;;1.60;;
11203;SDS011;5659;49.408;11.116;2023-05-10T08:18:18;2.63;;;1.67;;
11203;SDS011;5659;49.408;11.116;2023-05-10T08:20:44;2.78;;;1.95;;
11203;SDS011;5659;49.408;11.116;2023-05-10T08:23:11;2.35;;;1.60;;
11203;SDS011;5659;49.408;11.116;2023-05-10T08:25:38;1.80;;;1.42;;
11203;SDS011;5659;49.408;11.116;2023-05-10T08:28:04;1.80;;;1.70;;
11203;SDS011;5659;49.408;11.116;2023-05-10T08:30:30;2.20;;;1.60;;
11203;SDS011;5659;49.408;11.116;2023-05-10T08:32:56;2.60;;;1.52;;
11203;SDS011;5659;49.408;11.116;2023-05-10T08:35:22;3.60;;;1.40;;
11203;SDS011;5659;49.408;11.116;2023-05-10T08:37:49;2.88;;;1.45;;
11203;SDS011;5659;49.408;11.116;2023-05-10T08:40:15;2.42;;;1.55;;
11203;SDS011;5659;49.408;11.116;2023-05-10T08:42:43;1.67;;;1.58;;
11203;SDS011;5659;49.408;11.116;2023-05-10T08:45:13;2.38;;;1.50;;
11203;SDS011;5659;49.408;11.116;2023-05-10T08:47:39;4.30;;;1.50;;
11203;SDS011;5659;49.408;11.116;2023-05-10T08:50:05;1.40;;;1.30;;
11203;SDS011;5659;49.408;11.116;2023-05-10T08:52:32;2.67;;;1.30;;
11203;SDS011;5659;49.408;11.116;2023-05-10T08:54:58;1.40;;;1.30;;
11203;SDS011;5659;49.408;11.116;2023-05-10T08:57:24;3.17;;;1.55;;
11203;SDS011;5659;49.408;11.116;2023-05-10T08:59:50;2.90;;;1.40;;
11203;SDS011;5659;49.408;11.116;2023-05-10T09:02:16;3.15;;;1.60;;
11203;SDS011;5659;49.408;11.116;2023-05-10T09:04:43;3.38;;;1.90;;
11203;SDS011;5659;49.408;11.116;2023-05-10T09:07:09;1.48;;;1.38;;
11203;SDS011;5659;49.408;11.116;2023-05-10T09:09:36;3.95;;;1.60;;
11203;SDS011;5659;49.408;11.116;2023-05-10T09:12:02;1.70;;;1.60;;
11203;SDS011;5659;49.408;11.116;2023-05-10T09:14:28;2.08;;;1.88;;
11203;SDS011;5659;49.408;11.116;2023-05-10T09:16:54;9.32;;;3.08;;
11203;SDS011;5659;49.408;11.116;2023-05-10T09:19:20;4.63;;;2.50;;
11203;SDS011;5659;49.408;11.116;2023-05-10T09:21:46;5.22;;;2.85;;
11203;SDS011;5659;49.408;11.116;2023-05-10T09:24:12;3.58;;;2.72;;
11203;SDS011;5659;49.408;11.116;2023-05-10T09:26:48;6.30;;;3.28;;
11203;SDS011;5659;49.408;11.116;2023-05-10T09:29:14;4.00;;;2.80;;
11203;SDS011;5659;49.408;11.116;2023-05-10T09:31:52;6.15;;;3.17;;
11203;SDS011;5659;49.408;11.116;2023-05-10T09:34:31;3.63;;;3.30;;
11203;SDS011;5659;49.408;11.116;2023-05-10T09:36:58;3.33;;;3.00;;
11203;SDS011;5659;49.408;11.116;2023-05-10T09:39:35;5.95;;;3.17;;
11203;SDS011;5659;49.408;11.116;2023-05-10T09:42:05;4.28;;;3.10;;
11203;SDS011;5659;49.408;11.116;2023-05-10T09:44:32;5.70;;;3.20;;
11203;SDS011;5659;49.408;11.116;2023-05-10T09:46:58;4.50;;;2.97;;
11203;SDS011;5659;49.408;11.116;2023-05-10T09:49:26;4.32;;;2.70;;
11203;SDS011;5659;49.408;11.116;2023-05-10T09:52:05;6.63;;;2.80;;
11203;SDS011;5659;49.408;11.116;2023-05-10T09:54:32;5.30;;;2.38;;
11203;SDS011;5659;49.408;11.116;2023-05-10T09:56:58;6.18;;;2.75;;
11203;SDS011;5659;49.408;11.116;2023-05-10T09:59:25;6.07;;;2.92;;
11203;SDS011;5659;49.408;11.116;2023-05-10T10:01:52;6.18;;;2.92;;
11203;SDS011;5659;49.408;11.116;2023-05-10T10:04:19;6.50;;;2.85;;
11203;SDS011;5659;49.408;11.116;2023-05-10T10:06:46;7.47;;;2.95;;
11203;SDS011;5659;49.408;11.116;2023-05-10T10:09:12;5.57;;;2.67;;
11203;SDS011;5659;49.408;11.116;2023-05-10T10:11:39;6.72;;;2.90;;
11203;SDS011;5659;49.408;11.116;2023-05-10T10:14:06;3.10;;;2.20;;
11203;SDS011;5659;49.408;11.116;2023-05-10T10:16:32;5.03;;;2.88;;
11203;SDS011;5659;49.408;11.116;2023-05-10T10:18:58;9.70;;;2.90;;
11203;SDS011;5659;49.408;11.116;2023-05-10T10:21:24;2.65;;;2.45;;
11203;SDS011;5659;49.408;11.116;2023-05-10T10:23:50;4.72;;;2.53;;
11203;SDS011;5659;49.408;11.116;2023-05-10T10:26:17;4.40;;;2.42;;
11203;SDS011;5659;49.408;11.116;2023-05-10T10:31:47;2.90;;;2.22;;
11203;SDS011;5659;49.408;11.116;2023-05-10T10:36:45;4.38;;;1.75;;
11203;SDS011;5659;49.408;11.116;2023-05-10T10:39:11;2.42;;;1.75;;
11203;SDS011;5659;49.408;11.116;2023-05-10T10:41:38;2.65;;;1.85;;
11203;SDS011;5659;49.408;11.116;2023-05-10T10:49:23;2.83;;;1.60;;
11203;SDS011;5659;49.408;11.116;2023-05-10T10:54:34;4.05;;;1.73;;
11203;SDS011;5659;49.408;11.116;2023-05-10T10:57:13;4.35;;;1.73;;
11203;SDS011;5659;49.408;11.116;2023-05-10T10:59:43;1.65;;;1.50;;
11203;SDS011;5659;49.408;11.116;2023-05-10T11:02:09;10.07;;;1.85;;
11203;SDS011;5659;49.408;11.116;2023-05-10T11:04:42;6.25;;;1.63;;
11203;SDS011;5659;49.408;11.116;2023-05-10T11:07:20;2.67;;;1.48;;
11203;SDS011;5659;49.408;11.116;2023-05-10T11:09:47;3.20;;;1.65;;
11203;SDS011;5659;49.408;11.116;2023-05-10T11:12:12;2.88;;;1.63;;
11203;SDS011;5659;49.408;11.116;2023-05-10T11:14:39;3.45;;;1.58;;
11203;SDS011;5659;49.408;11.116;2023-05-10T11:17:21;2.30;;;1.50;;
11203;SDS011;5659;49.408;11.116;2023-05-10T11:20:07;3.17;;;1.42;;
11203;SDS011;5659;49.408;11.116;2023-05-10T11:22:55;5.68;;;1.50;;
11203;SDS011;5659;49.408;11.116;2023-05-10T11:25:25;2.78;;;1.45;;
11203;SDS011;5659;49.408;11.116;2023-05-10T11:27:52;3.35;;;1.40;;
11203;SDS011;5659;49.408;11.116;2023-05-10T11:30:18;4.35;;;1.50;;
11203;SDS011;5659;49.408;11.116;2023-05-10T11:32:44;1.80;;;1.38;;
11203;SDS011;5659;49.408;11.116;2023-05-10T11:35:10;2.65;;;1.50;;
11203;SDS011;5659;49.408;11.116;2023-05-10T11:37:37;1.58;;;1.48;;
11203;SDS011;5659;49.408;11.116;2023-05-10T11:40:06;4.15;;;1.40;;
11203;SDS011;5659;49.408;11.116;2023-05-10T11:42:34;4.57;;;1.60;;
11203;SDS011;5659;49.408;11.116;2023-05-10T11:45:01;3.00;;;1.40;;
11203;SDS011;5659;49.408;11.116;2023-05-10T11:47:27;1.40;;;1.25;;
11203;SDS011;5659;49.408;11.116;2023-05-10T11:49:53;4.50;;;1.65;;
11203;SDS011;5659;49.408;11.116;2023-05-10T11:52:19;2.95;;;2.10;;
11203;SDS011;5659;49.408;11.116;2023-05-10T11:54:50;2.35;;;1.70;;
11203;SDS011;5659;49.408;11.116;2023-05-10T11:57:17;4.78;;;1.58;;
11203;SDS011;5659;49.408;11.116;2023-05-10T11:59:45;5.55;;;2.42;;
11203;SDS011;5659;49.408;11.116;2023-05-10T12:02:11;4.43;;;1.98;;
11203;SDS011;5659;49.408;11.116;2023-05-10T12:04:37;2.20;;;1.90;;
11203;SDS011;5659;49.408;11.116;2023-05-10T12:07:03;5.18;;;1.70;;
11203;SDS011;5659;49.408;11.116;2023-05-10T12:09:29;2.42;;;1.70;;
11203;SDS011;5659;49.408;11.116;2023-05-10T12:11:55;3.85;;;1.85;;
11203;SDS011;5659;49.408;11.116;2023-05-10T12:14:22;2.00;;;1.48;;
11203;SDS011;5659;49.408;11.116;2023-05-10T12:16:49;1.67;;;1.58;;
11203;SDS011;5659;49.408;11.116;2023-05-10T12:19:19;2.25;;;1.80;;
11203;SDS011;5659;49.408;11.116;2023-05-10T12:21:48;1.80;;;1.45;;
11203;SDS011;5659;49.408;11.116;2023-05-10T12:24:14;3.00;;;1.80;;
11203;SDS011;5659;49.408;11.116;2023-05-10T12:26:45;1.80;;;1.70;;
11203;SDS011;5659;49.408;11.116;2023-05-10T12:29:20;3.22;;;1.58;;
11203;SDS011;5659;49.408;11.116;2023-05-10T12:34:31;1.95;;;1.30;;
11203;SDS011;5659;49.408;11.116;2023-05-10T12:36:58;3.08;;;1.40;;
11203;SDS011;5659;49.408;11.116;2023-05-10T12:39:24;1.52;;;1.00;;
11203;SDS011;5659;49.408;11.116;2023-05-10T12:41:50;2.25;;;1.10;;
11203;SDS011;5659;49.408;11.116;2023-05-10T12:44:17;1.23;;;1.10;;
11203;SDS011;5659;49.408;11.116;2023-05-10T12:46:43;3.78;;;1.08;;
11203;SDS011;5659;49.408;11.116;2023-05-10T12:49:09;0.93;;;0.90;;
11203;SDS011;5659;49.408;11.116;2023-05-10T12:51:35;1.70;;;1.30;;
11203;SDS011;5659;49.408;11.116;2023-05-10T12:54:02;3.85;;;1.13;;
11203;SDS011;5659;49.408;11.116;2023-05-10T12:56:28;1.55;;;1.00;;
11203;SDS011;5659;49.408;11.116;2023-05-10T12:58:54;1.40;;;1.10;;
11203;SDS011;5659;49.408;11.116;2023-05-10T13:01:20;4.03;;;1.30;;
11203;SDS011;5659;49.408;11.116;2023-05-10T13:03:46;2.67;;;1.17;;
11203;SDS011;5659;49.408;11.116;2023-05-10T13:06:13;1.50;;;1.20;;
11203;SDS011;5659;49.408;11.116;2023-05-10T13:08:39;3.42;;;1.13;;
11203;SDS011;5659;49.408;11.116;2023-05-10T13:11:05;4.63;;;1.70;;
11203;SDS011;5659;49.408;11.116;2023-05-10T13:13:31;1.33;;;1.23;;
11203;SDS011;5659;49.408;11.116;2023-05-10T13:15:57;1.38;;;1.27;;
11203;SDS011;5659;49.408;11.116;2023-05-10T13:18:23;1.48;;;1.10;;
11203;SDS011;5659;49.408;11.116;2023-05-10T13:20:49;2.38;;;1.35;;
11203;SDS011;5659;49.408;11.116;2023-05-10T13:23:15;4.28;;;1.63;;
11203;SDS011;5659;49.408;11.116;2023-05-10T13:25:41;2.05;;;1.30;;
11203;SDS011;5659;49.408;11.116;2023-05-10T13:28:07;4.60;;;1.70;;
11203;SDS011;5659;49.408;11.116;2023-05-10T13:30:33;1.50;;;1.40;;
11203;SDS011;5659;49.408;11.116;2023-05-10T13:32:59;5.43;;;1.42;;
11203;SDS011;5659;49.408;11.116;2023-05-10T13:35:25;5.43;;;1.50;;
11203;SDS011;5659;49.408;11.116;2023-05-10T13:37:51;2.63;;;1.55;;
11203;SDS011;5659;49.408;11.116;2023-05-10T13:40:18;2.22;;;1.40;;
11203;SDS011;5659;49.408;11.116;2023-05-10T13:42:44;1.55;;;1.25;;
11203;SDS011;5659;49.408;11.116;2023-05-10T13:45:10;2.15;;;1.38;;
11203;SDS011;5659;49.408;11.116;2023-05-10T13:47:37;2.88;;;1.33;;
11203;SDS011;5659;49.408;11.116;2023-05-10T13:50:03;2.03;;;1.50;;
11203;SDS011;5659;49.408;11.116;2023-05-10T13:52:29;1.40;;;1.30;;
11203;SDS011;5659;49.408;11.116;2023-05-10T13:54:55;2.22;;;1.30;;
11203;SDS011;5659;49.408;11.116;2023-05-10T13:57:22;4.18;;;1.30;;
11203;SDS011;5659;49.408;11.116;2023-05-10T13:59:49;3.78;;;1.50;;
11203;SDS011;5659;49.408;11.116;2023-05-10T14:02:15;3.47;;;1.25;;
11203;SDS011;5659;49.408;11.116;2023-05-10T14:04:41;1.90;;;1.23;;
11203;SDS011;5659;49.408;11.116;2023-05-10T14:07:07;2.92;;;1.33;;
11203;SDS011;5659;49.408;11.116;2023-05-10T14:09:32;1.40;;;1.30;;
11203;SDS011;5659;49.408;11.116;2023-05-10T14:11:58;1.65;;;1.42;;
11203;SDS011;5659;49.408;11.116;2023-05-10T14:14:24;2.17;;;1.23;;
11203;SDS011;5659;49.408;11.116;2023-05-10T14:16:51;5.85;;;1.85;;
11203;SDS011;5659;49.408;11.116;2023-05-10T14:19:16;2.35;;;1.30;;
11203;SDS011;5659;49.408;11.116;2023-05-10T14:21:42;4.03;;;1.20;;
11203;SDS011;5659;49.408;11.116;2023-05-10T14:24:09;4.05;;;1.42;;
11203;SDS011;5659;49.408;11.116;2023-05-10T14:26:35;1.55;;;1.20;;
11203;SDS011;5659;49.408;11.116;2023-05-10T14:29:01;1.77;;;1.20;;
11203;SDS011;5659;49.408;11.116;2023-05-10T14:31:27;2.85;;;1.20;;
11203;SDS011;5659;49.408;11.116;2023-05-10T14:33:55;2.92;;;1.30;;
11203;SDS011;5659;49.408;11.116;2023-05-10T14:36:21;2.65;;;1.30;;
11203;SDS011;5659;49.408;11.116;2023-05-10T14:38:47;4.45;;;1.30;;
11203;SDS011;5659;49.408;11.116;2023-05-10T14:41:13;1.58;;;1.30;;
11203;SDS011;5659;49.408;11.116;2023-05-10T14:43:40;2.95;;;1.40;;
11203;SDS011;5659;49.408;11.116;2023-05-10T14:46:06;2.10;;;1.30;;
11203;SDS011;5659;49.408;11.116;2023-05-10T14:48:32;2.30;;;1.25;;
11203;SDS011;5659;49.408;11.116;2023-05-10T14:50:58;4.00;;;1.35;;
11203;SDS011;5659;49.408;11.116;2023-05-10T14:53:24;4.30;;;1.10;;
11203;SDS011;5659;49.408;11.116;2023-05-10T14:55:50;2.50;;;1.30;;
11203;SDS011;5659;49.408;11.116;2023-05-10T14:58:16;1.55;;;1.42;;
11203;SDS011;5659;49.408;11.116;2023-05-10T15:00:42;1.42;;;1.20;;
11203;SDS011;5659;49.408;11.116;2023-05-10T15:03:08;3.40;;;1.40;;
11203;SDS011;5659;49.408;11.116;2023-05-10T15:05:34;5.28;;;1.50;;
11203;SDS011;5659;49.408;11.116;2023-05-10T15:08:02;1.83;;;1.25;;
11203;SDS011;5659;49.408;11.116;2023-05-10T15:10:28;1.88;;;1.33;;
11203;SDS011;5659;49.408;11.116;2023-05-10T15:12:54;3.35;;;1.20;;
11203;SDS011;5659;49.408;11.116;2023-05-10T15:15:20;1.70;;;1.45;;